Time;durP1;ratioP1;P1;durP2;ratioP2;P2;SDS_P1;SDS_P2;PMS_P1;PMS_P2;Temp;Humidity;BMP_temperature;BMP_pressure;BME280_temperature;BME280_humidity;BME280_pressure;Samples;Min_cycle;Max_cycle;Signal;HPM_P1;HPM_P2
2021/07/31 00:01:59;;;;;;;12.77;6.03;;;;;;;15.59;80.32;100055.81;5047211;28;20094;-74
2021/07/31 00:04:24;;;;;;;14.33;6.30;;;;;;;15.56;80.19;100053.50;5047554;28;20113;-74
2021/07/31 00:06:50;;;;;;;14.30;6.17;;;;;;;15.59;80.46;100058.50;5047173;28;20036;-74
2021/07/31 00:09:15;;;;;;;9.23;5.97;;;;;;;15.67;80.85;100053.91;5048451;28;20052;-73
2021/07/31 00:11:41;;;;;;;12.57;6.18;;;;;;;15.62;80.27;100047.28;5047198;28;20040;-73
2021/07/31 00:14:06;;;;;;;11.23;6.47;;;;;;;15.58;81.14;100054.13;5047397;28;20084;-74
2021/07/31 00:16:31;;;;;;;9.20;6.00;;;;;;;15.48;81.72;100056.44;5047135;28;20087;-73
2021/07/31 00:18:57;;;;;;;9.27;6.40;;;;;;;15.45;82.27;100050.66;5047497;28;20064;-73
2021/07/31 00:21:22;;;;;;;11.80;6.27;;;;;;;15.52;82.19;100046.94;5048073;28;20074;-73
2021/07/31 00:23:47;;;;;;;14.23;7.63;;;;;;;15.49;82.04;100031.19;5047220;28;20041;-73
2021/07/31 00:26:13;;;;;;;11.37;6.30;;;;;;;15.54;82.03;100039.44;5046769;28;20095;-74
2021/07/31 00:28:38;;;;;;;8.60;6.10;;;;;;;15.57;82.18;100040.91;5030724;28;20033;-74
2021/07/31 00:31:03;;;;;;;8.27;5.40;;;;;;;15.56;82.56;100047.31;5048343;28;20037;-73
2021/07/31 00:33:29;;;;;;;11.97;6.40;;;;;;;15.60;82.40;100037.78;5030336;28;20047;-74
2021/07/31 00:35:54;;;;;;;14.17;6.63;;;;;;;15.58;82.68;100027.22;5047891;28;20033;-74
2021/07/31 00:38:19;;;;;;;16.83;7.23;;;;;;;15.58;83.00;100027.22;5046957;28;20047;-78
2021/07/31 00:40:47;;;;;;;10.55;6.80;;;;;;;15.67;82.79;100027.81;5047158;28;20446;-74
2021/07/31 00:43:12;;;;;;;12.85;6.90;;;;;;;15.72;82.85;100030.72;5047846;28;20028;-74
2021/07/31 00:45:38;;;;;;;14.27;7.40;;;;;;;15.77;82.62;100030.09;5046927;28;20473;-73
2021/07/31 00:48:04;;;;;;;9.23;6.65;;;;;;;15.74;82.52;100039.41;5046884;28;20351;-73
2021/07/31 00:50:31;;;;;;;10.27;6.88;;;;;;;15.78;82.59;100039.81;5047141;28;20040;-73
2021/07/31 00:52:58;;;;;;;10.27;6.80;;;;;;;15.86;82.72;100052.22;5030295;28;20512;-74
2021/07/31 00:55:25;;;;;;;15.88;8.32;;;;;;;15.77;83.32;100038.16;5048083;28;20025;-74
2021/07/31 00:57:51;;;;;;;11.95;8.32;;;;;;;15.84;82.81;100038.94;5046649;28;20039;-74
2021/07/31 01:00:29;;;;;;;10.73;6.95;;;;;;;15.87;83.28;100043.09;5045667;28;20449;-73
2021/07/31 01:02:55;;;;;;;10.65;7.90;;;;;;;15.77;83.93;100038.97;5046032;28;20090;-73
2021/07/31 01:05:22;;;;;;;13.45;7.80;;;;;;;15.86;83.81;100044.94;5028467;28;20101;-73
2021/07/31 01:07:50;;;;;;;11.05;7.55;;;;;;;15.84;84.11;100044.34;5033688;28;20060;-74
2021/07/31 01:10:18;;;;;;;13.80;7.57;;;;;;;15.78;84.12;100029.88;5051300;28;20020;-74
2021/07/31 01:12:46;;;;;;;17.45;8.25;;;;;;;15.79;84.84;100036.09;5033605;28;20036;-74
2021/07/31 01:15:11;;;;;;;11.45;7.57;;;;;;;15.77;85.23;100030.09;5050161;28;20036;-73
2021/07/31 01:17:37;;;;;;;12.45;8.23;;;;;;;15.84;84.67;100030.88;5050454;28;20082;-73
2021/07/31 01:20:03;;;;;;;12.17;8.23;;;;;;;15.82;84.57;100020.31;5033713;28;20028;-74
2021/07/31 01:22:31;;;;;;;13.93;9.10;;;;;;;15.77;85.25;100022.84;5050298;28;20055;-74
2021/07/31 01:25:02;;;;;;;15.00;8.45;;;;;;;15.76;85.95;100021.19;5034004;28;20041;-73
2021/07/31 01:27:28;;;;;;;16.30;9.07;;;;;;;15.74;85.91;100019.75;5049702;28;20033;-75
2021/07/31 01:29:53;;;;;;;12.50;7.77;;;;;;;15.79;85.77;100020.75;5050449;28;20036;-74
2021/07/31 01:32:19;;;;;;;22.60;9.67;;;;;;;15.75;85.66;100013.31;5050397;28;20029;-74
2021/07/31 01:34:45;;;;;;;12.98;9.50;;;;;;;15.79;85.83;100015.38;5049843;28;20102;-73
2021/07/31 01:37:11;;;;;;;13.25;8.40;;;;;;;15.77;85.96;100030.91;5050044;28;20063;-73
2021/07/31 01:39:37;;;;;;;14.23;8.27;;;;;;;15.76;86.13;100028.44;5050005;28;20208;-73
2021/07/31 01:42:05;;;;;;;;;;;;;;;15.81;85.54;100028.63;5050470;28;20029;-73
2021/07/31 01:44:33;;;;;;;12.02;7.95;;;;;;;15.87;84.77;100026.94;5049917;28;19923;-73
2021/07/31 01:46:58;;;;;;;16.77;8.45;;;;;;;15.89;84.95;100027.53;5033371;28;20032;-73
2021/07/31 01:49:25;;;;;;;11.48;7.72;;;;;;;15.88;84.90;100013.25;5022328;28;20025;-73
2021/07/31 01:51:59;;;;;;;13.27;7.40;;;;;;;15.89;84.75;100019.47;5034586;28;20029;-73
2021/07/31 01:54:25;;;;;;;14.40;8.17;;;;;;;15.88;84.76;100015.97;5033099;28;20043;-74
2021/07/31 01:56:51;;;;;;;10.80;7.43;;;;;;;15.93;84.83;100020.69;5033212;28;20056;-73
2021/07/31 01:59:19;;;;;;;11.02;7.55;;;;;;;15.90;84.95;100021.97;5046668;28;20029;-73
2021/07/31 02:01:46;;;;;;;8.23;6.72;;;;;;;15.92;85.19;100025.25;5029573;28;20487;-73
2021/07/31 02:04:12;;;;;;;;;;;;;;;15.99;84.92;100026.06;5031132;28;20052;-74
2021/07/31 02:06:43;;;;;;;10.63;6.97;;;;;;;15.92;85.43;100027.09;5030519;28;19924;-73
2021/07/31 02:09:09;;;;;;;14.10;7.77;;;;;;;15.90;85.20;100016.56;5030708;28;20067;-74
2021/07/31 02:11:34;;;;;;;11.50;7.77;;;;;;;15.87;85.86;100019.66;5029531;28;20030;-75
2021/07/31 02:14:01;;;;;;;13.05;8.30;;;;;;;15.78;86.97;100013.72;5029613;28;20110;-74
2021/07/31 02:16:32;;;;;;;11.43;8.45;;;;;;;15.63;87.65;100003.19;5028257;28;20040;-74
2021/07/31 02:19:01;;;;;;;16.58;9.45;;;;;;;15.57;88.00;100006.75;5029634;28;20843;-74
2021/07/31 02:21:37;;;;;;;11.38;8.55;;;;;;;15.62;88.40;100001.56;5014254;28;20061;-75
2021/07/31 02:24:28;;;;;;;13.55;9.25;;;;;;;15.58;88.28;100005.69;5030314;28;20502;-75
2021/07/31 02:27:00;;;;;;;16.58;10.25;;;;;;;15.43;88.17;99985.47;5028752;28;20041;-74
2021/07/31 02:29:39;;;;;;;16.17;8.73;;;;;;;15.50;88.47;100002.41;5029548;28;20041;-74
2021/07/31 02:32:06;;;;;;;11.98;8.70;;;;;;;15.44;88.87;100003.28;5029134;28;20035;-74
2021/07/31 02:34:32;;;;;;;16.48;9.68;;;;;;;15.38;88.88;99986.97;5029114;28;20040;-74
2021/07/31 02:36:58;;;;;;;10.57;8.57;;;;;;;15.46;88.73;100004.72;5012404;28;20539;-74
2021/07/31 02:39:26;;;;;;;15.30;9.60;;;;;;;15.45;88.62;99992.28;5029475;28;20076;-74
2021/07/31 02:41:52;;;;;;;15.57;10.75;;;;;;;15.40;88.81;99995.66;5028839;28;20033;-74
2021/07/31 02:44:17;;;;;;;12.07;8.60;;;;;;;15.43;88.98;100004.31;5012620;28;20424;-74
2021/07/31 02:46:43;;;;;;;16.23;9.43;;;;;;;15.37;88.97;99992.56;5028967;28;20272;-74
2021/07/31 02:49:09;;;;;;;11.32;8.60;;;;;;;15.37;89.21;99996.06;5028971;28;20033;-74
2021/07/31 02:51:35;;;;;;;10.83;8.07;;;;;;;15.32;89.04;99992.38;5029000;28;20060;-74
2021/07/31 02:54:10;;;;;;;15.55;8.80;;;;;;;15.33;88.96;99994.00;5013399;28;20037;-74
2021/07/31 02:56:35;;;;;;;14.52;8.40;;;;;;;15.30;88.93;99989.06;5029701;28;20036;-74
2021/07/31 02:59:03;;;;;;;10.10;7.97;;;;;;;15.22;88.88;100002.72;5028785;28;20033;-74
2021/07/31 03:01:30;;;;;;;11.50;7.95;;;;;;;15.24;88.44;99990.75;5028698;28;20178;-74
2021/07/31 03:03:56;;;;;;;12.82;8.45;;;;;;;15.28;88.30;99988.44;5012120;28;20033;-74
2021/07/31 03:06:22;;;;;;;11.70;8.13;;;;;;;15.21;88.53;99993.84;5028442;28;20490;-74
2021/07/31 03:08:48;;;;;;;12.77;8.73;;;;;;;15.23;88.43;99993.63;5028456;28;20538;-74
2021/07/31 03:11:13;;;;;;;12.60;8.93;;;;;;;15.05;88.82;99973.59;5012263;28;20030;-74
2021/07/31 03:13:39;;;;;;;12.65;8.50;;;;;;;15.04;89.19;99987.28;5028346;28;20312;-74
2021/07/31 03:16:06;;;;;;;15.43;8.57;;;;;;;14.93;89.08;99972.59;5011799;28;20115;-74
2021/07/31 03:18:33;;;;;;;15.05;8.43;;;;;;;14.98;89.08;99973.63;5012046;28;20033;-74
2021/07/31 03:21:01;;;;;;;15.45;8.20;;;;;;;14.95;89.20;99976.72;5028334;28;20120;-74
2021/07/31 03:23:39;;;;;;;11.55;8.25;;;;;;;14.87;88.75;99970.78;5028148;28;20033;-74
2021/07/31 03:26:04;;;;;;;12.70;8.77;;;;;;;14.86;89.05;99977.97;5027982;28;20405;-74
2021/07/31 03:28:30;;;;;;;11.85;7.82;;;;;;;14.83;88.90;99973.03;5011303;28;20045;-74
2021/07/31 03:31:00;;;;;;;12.93;8.35;;;;;;;14.79;88.49;99977.16;5028125;28;20134;-74
2021/07/31 03:33:26;;;;;;;11.77;8.07;;;;;;;14.75;88.92;99975.97;5028088;28;20053;-73
2021/07/31 03:35:53;;;;;;;12.70;8.05;;;;;;;14.72;88.19;99974.47;5027618;28;20048;-74
2021/07/31 03:38:37;;;;;;;8.35;6.35;;;;;;;14.73;87.99;99972.66;5028273;28;20176;-74
2021/07/31 03:41:02;;;;;;;10.33;6.17;;;;;;;14.70;88.32;99968.53;5028046;28;20472;-74
2021/07/31 03:43:33;;;;;;;12.65;7.28;;;;;;;14.61;88.19;99959.03;5028093;28;20025;-74
2021/07/31 03:45:59;;;;;;;9.07;6.22;;;;;;;14.64;88.38;99972.03;5027434;28;20029;-74
2021/07/31 03:48:25;;;;;;;;;;;;;;;14.66;88.19;99975.34;5028401;28;20258;-73
2021/07/31 03:50:51;;;;;;;7.20;6.32;;;;;;;14.62;88.23;99976.78;5027902;28;19924;-74
2021/07/31 03:53:24;;;;;;;10.93;6.95;;;;;;;14.60;87.70;99968.09;5012578;28;20095;-74
2021/07/31 03:55:51;;;;;;;14.65;6.03;;;;;;;14.54;87.25;99963.56;5028323;28;20022;-73
2021/07/31 03:58:17;;;;;;;13.95;5.95;;;;;;;14.57;86.97;99968.53;5011561;28;20029;-72
2021/07/31 04:00:43;;;;;;;9.57;5.20;;;;;;;14.61;87.49;99960.84;5011303;28;20494;-73
2021/07/31 04:03:09;;;;;;;13.88;5.18;;;;;;;14.54;86.86;99958.19;5027632;28;20022;-73
2021/07/31 04:05:39;;;;;;;11.15;4.70;;;;;;;14.60;86.56;99965.41;5027430;28;20037;-72
2021/07/31 04:08:39;;;;;;;8.23;4.97;;;;;;;14.64;85.85;99958.59;5008836;28;20526;-72
2021/07/31 04:11:23;;;;;;;9.07;4.38;;;;;;;14.63;85.49;99961.47;5028644;28;20049;-72
2021/07/31 04:14:21;;;;;;;8.93;5.15;;;;;;;14.71;85.06;99964.78;5005839;28;20048;-73
2021/07/31 04:17:11;;;;;;;8.60;4.60;;;;;;;14.89;84.51;99965.97;5027981;28;20120;-73
2021/07/31 04:19:37;;;;;;;7.15;3.80;;;;;;;14.95;84.09;99962.47;5010972;28;20698;-73
2021/07/31 04:22:03;;;;;;;7.03;3.95;;;;;;;14.93;84.18;99956.47;5028344;28;20187;-72
2021/07/31 04:24:36;;;;;;;7.30;4.07;;;;;;;15.01;83.97;99958.09;5012020;28;20402;-72
2021/07/31 04:27:02;;;;;;;7.93;4.32;;;;;;;15.04;83.36;99963.06;5026573;28;20037;-72
2021/07/31 04:29:27;;;;;;;6.03;3.95;;;;;;;15.01;82.62;99948.19;5028584;28;20136;-73
2021/07/31 04:31:53;;;;;;;9.00;4.60;;;;;;;14.98;82.54;99957.50;5028245;28;20116;-72
2021/07/31 04:34:18;;;;;;;8.73;4.30;;;;;;;14.91;82.86;99958.53;5027324;28;20439;-72
2021/07/31 04:36:44;;;;;;;10.80;4.45;;;;;;;14.93;82.62;99961.84;5010668;28;20053;-72
2021/07/31 04:39:09;;;;;;;10.90;5.13;;;;;;;14.86;82.43;99955.66;5011264;28;20044;-73
2021/07/31 04:41:37;;;;;;;7.83;3.90;;;;;;;14.87;82.47;99954.66;5014727;28;20034;-74
2021/07/31 04:44:02;;;;;;;5.30;3.83;;;;;;;14.79;83.09;99947.59;5031136;28;20132;-73
2021/07/31 04:46:28;;;;;;;8.68;4.53;;;;;;;14.74;83.73;99942.88;5031270;28;20354;-74
2021/07/31 04:48:53;;;;;;;10.93;3.90;;;;;;;14.67;83.43;99946.59;5031165;28;20048;-73
2021/07/31 04:51:18;;;;;;;6.73;3.63;;;;;;;14.69;83.83;99942.66;5032477;28;20037;-73
2021/07/31 04:53:44;;;;;;;6.63;3.37;;;;;;;14.80;82.40;99933.16;5031087;28;20033;-72
2021/07/31 04:56:09;;;;;;;7.70;3.37;;;;;;;14.78;81.92;99932.53;5030801;28;20382;-73
2021/07/31 04:58:34;;;;;;;6.30;3.27;;;;;;;14.91;81.45;99937.03;5014667;28;20041;-73
2021/07/31 05:01:00;;;;;;;5.27;3.53;;;;;;;15.02;81.27;99928.34;5014599;28;20048;-73
2021/07/31 05:03:27;;;;;;;8.43;3.67;;;;;;;15.25;80.90;99929.72;5031805;28;20045;-73
2021/07/31 05:05:52;;;;;;;6.85;3.53;;;;;;;15.27;80.66;99927.63;5031588;28;20132;-73
2021/07/31 05:08:18;;;;;;;6.57;3.47;;;;;;;15.34;79.72;99931.13;5014325;28;20133;-73
2021/07/31 05:10:48;;;;;;;10.60;3.13;;;;;;;15.58;78.93;99943.81;5031943;28;20052;-73
2021/07/31 05:13:14;;;;;;;7.78;3.58;;;;;;;15.60;78.26;99925.59;5030686;28;20032;-73
2021/07/31 05:15:41;;;;;;;12.65;3.45;;;;;;;15.60;78.12;99935.56;5030788;28;20133;-73
2021/07/31 05:18:08;;;;;;;6.05;3.00;;;;;;;15.89;77.42;99928.78;5030814;28;20073;-73
2021/07/31 05:20:37;;;;;;;7.85;3.00;;;;;;;16.09;76.68;99917.88;5014064;28;20410;-73
2021/07/31 05:23:02;;;;;;;6.50;2.90;;;;;;;15.85;76.14;99921.34;5031324;28;20041;-73
2021/07/31 05:25:28;;;;;;;8.70;3.00;;;;;;;16.46;74.72;99915.31;5030115;28;20041;-74
2021/07/31 05:27:53;;;;;;;4.97;2.47;;;;;;;16.34;74.63;99915.19;5030850;28;20033;-73
2021/07/31 05:30:19;;;;;;;4.97;2.53;;;;;;;16.91;72.64;99931.25;5029503;28;20045;-74
2021/07/31 05:32:44;;;;;;;6.33;2.73;;;;;;;17.14;71.07;99903.63;5028693;28;20021;-75
2021/07/31 05:35:09;;;;;;;7.33;2.53;;;;;;;17.45;68.96;99899.06;5011661;28;20037;-74
2021/07/31 05:37:35;;;;;;;7.82;3.45;;;;;;;17.11;71.03;99906.75;5028659;28;20029;-74
2021/07/31 05:40:02;;;;;;;4.40;2.95;;;;;;;16.35;73.45;99916.00;5028896;28;20107;-74
2021/07/31 05:42:28;;;;;;;5.30;2.72;;;;;;;16.24;74.38;99904.91;5029955;28;20068;-74
2021/07/31 05:45:01;;;;;;;5.78;2.58;;;;;;;15.99;75.00;99907.59;5028827;28;20061;-74
2021/07/31 05:47:28;;;;;;;9.20;3.95;;;;;;;15.99;75.19;99902.22;5030912;28;20804;-74
2021/07/31 05:49:55;;;;;;;5.70;3.00;;;;;;;16.05;75.64;99900.50;5013542;28;20029;-74
2021/07/31 05:52:24;;;;;;;6.18;2.58;;;;;;;17.63;69.97;99904.44;5013411;28;20029;-74
2021/07/31 05:54:50;;;;;;;18.73;3.00;;;;;;;17.88;67.67;99900.75;5030111;28;20088;-74
2021/07/31 05:57:15;;;;;;;4.80;2.95;;;;;;;17.01;69.49;99883.00;5029805;28;20430;-74
2021/07/31 05:59:41;;;;;;;4.90;2.50;;;;;;;16.69;72.17;99901.16;5031196;28;20060;-74
2021/07/31 06:02:06;;;;;;;5.93;2.73;;;;;;;16.46;72.49;99897.25;5013084;28;20052;-74
2021/07/31 06:04:32;;;;;;;6.13;2.80;;;;;;;16.31;73.53;99904.84;5029753;28;20033;-73
2021/07/31 06:06:59;;;;;;;3.97;2.60;;;;;;;16.25;73.70;99901.19;5029529;28;20373;-73
2021/07/31 06:09:25;;;;;;;4.65;2.75;;;;;;;16.11;74.05;99904.16;5030002;28;20052;-73
2021/07/31 06:11:50;;;;;;;6.10;2.90;;;;;;;16.00;74.05;99898.47;5029584;28;20444;-74
2021/07/31 06:14:15;;;;;;;7.43;3.47;;;;;;;16.09;73.81;99895.53;5030699;28;20099;-73
2021/07/31 06:16:41;;;;;;;6.53;3.03;;;;;;;16.06;74.04;99887.84;5029573;28;20045;-73
2021/07/31 06:19:06;;;;;;;6.30;2.40;;;;;;;17.22;70.58;99897.91;5029766;28;20053;-73
2021/07/31 06:21:31;;;;;;;6.77;2.67;;;;;;;18.21;67.06;99891.31;5028385;28;20049;-74
2021/07/31 06:23:57;;;;;;;5.80;2.37;;;;;;;17.81;68.03;99878.44;5029549;28;20076;-74
2021/07/31 06:26:22;;;;;;;3.70;2.20;;;;;;;18.17;66.08;99882.88;5029275;28;20091;-75
2021/07/31 06:28:48;;;;;;;5.53;2.00;;;;;;;17.26;69.53;99895.59;5029226;28;20029;-74
2021/07/31 06:31:13;;;;;;;8.25;2.78;;;;;;;17.15;69.89;99889.06;5030690;28;20038;-74
2021/07/31 06:33:39;;;;;;;7.90;3.00;;;;;;;16.71;71.60;99882.91;5029201;28;20040;-74
2021/07/31 06:36:04;;;;;;;7.57;3.40;;;;;;;16.48;72.28;99893.50;5029098;28;20546;-74
2021/07/31 06:38:29;;;;;;;6.00;2.70;;;;;;;16.55;72.54;99886.19;5029415;28;20037;-74
2021/07/31 06:40:55;;;;;;;9.67;4.03;;;;;;;16.30;72.29;99894.31;5029656;28;20200;-73
2021/07/31 06:43:20;;;;;;;8.63;3.40;;;;;;;16.34;71.83;99896.34;5012651;28;20029;-74
2021/07/31 06:45:45;;;;;;;7.03;3.03;;;;;;;16.38;72.96;99905.59;5029094;28;20478;-74
2021/07/31 06:48:11;;;;;;;8.30;2.60;;;;;;;16.23;74.36;99886.28;5029006;28;20033;-74
2021/07/31 06:50:36;;;;;;;6.70;3.07;;;;;;;16.01;74.52;99896.59;5029820;28;20032;-74
2021/07/31 06:53:01;;;;;;;5.53;3.03;;;;;;;15.85;76.77;99897.13;5012613;28;20033;-74
2021/07/31 06:55:27;;;;;;;14.13;3.50;;;;;;;15.73;77.25;99894.31;5012672;28;20044;-75
2021/07/31 06:57:52;;;;;;;5.53;3.53;;;;;;;15.80;77.24;99897.78;5029926;28;20033;-74
2021/07/31 07:00:17;;;;;;;5.57;2.90;;;;;;;15.73;76.53;99897.00;5042077;28;20033;-74
2021/07/31 07:02:43;;;;;;;7.07;3.40;;;;;;;15.71;77.24;99888.31;5054780;28;20828;-74
2021/07/31 07:05:09;;;;;;;5.10;2.97;;;;;;;15.87;75.77;99893.16;5048530;28;20029;-74
2021/07/31 07:07:34;;;;;;;6.40;3.40;;;;;;;16.03;76.10;99894.50;5048611;28;20040;-74
2021/07/31 07:09:59;;;;;;;9.97;3.40;;;;;;;16.10;74.84;99892.59;5032017;28;20041;-74
2021/07/31 07:12:25;;;;;;;4.23;2.57;;;;;;;16.17;74.10;99889.84;5048385;28;20063;-74
2021/07/31 07:14:50;;;;;;;6.67;2.90;;;;;;;16.16;72.89;99880.13;5031739;28;20039;-74
2021/07/31 07:17:15;;;;;;;4.90;2.90;;;;;;;16.57;73.16;99889.47;5049239;28;20032;-74
2021/07/31 07:19:40;;;;;;;9.80;2.80;;;;;;;16.68;72.86;99884.19;5048431;28;20036;-74
2021/07/31 07:22:06;;;;;;;6.67;2.70;;;;;;;16.46;72.55;99901.81;5031801;28;20025;-74
2021/07/31 07:24:35;;;;;;;7.90;2.90;;;;;;;16.32;72.92;99893.03;5048140;28;20055;-74
2021/07/31 07:27:01;;;;;;;9.25;3.30;;;;;;;16.46;72.43;99886.47;5030985;28;20051;-74
2021/07/31 07:29:26;;;;;;;8.63;3.13;;;;;;;16.66;72.15;99886.25;5049196;28;20029;-74
2021/07/31 07:31:51;;;;;;;8.30;2.87;;;;;;;16.68;72.25;99888.75;5048992;28;20040;-74
2021/07/31 07:34:17;;;;;;;5.50;2.63;;;;;;;16.63;72.75;99880.50;5048890;28;20421;-74
2021/07/31 07:36:42;;;;;;;3.70;2.53;;;;;;;16.48;72.48;99888.13;5047760;28;20413;-74
2021/07/31 07:39:07;;;;;;;7.03;3.00;;;;;;;16.46;72.46;99897.25;5046921;28;20060;-73
2021/07/31 07:41:33;;;;;;;8.53;2.87;;;;;;;16.28;72.34;99883.75;5029062;28;20039;-74
2021/07/31 07:43:58;;;;;;;6.80;3.20;;;;;;;16.14;73.10;99876.84;5047574;28;20061;-74
2021/07/31 07:46:23;;;;;;;8.57;2.40;;;;;;;16.28;72.97;99881.06;5046077;28;20047;-74
2021/07/31 07:48:50;;;;;;;8.90;2.70;;;;;;;16.33;73.13;99891.97;5046795;28;20033;-73
2021/07/31 07:51:15;;;;;;;;;;;;;;;16.09;73.00;99882.88;5047942;28;20033;-74
2021/07/31 07:53:40;;;;;;;;;;;;;;;16.06;72.98;99885.16;5047660;28;19920;-73
2021/07/31 07:56:06;;;;;;;6.60;3.20;;;;;;;16.06;72.78;99891.41;5047254;28;19924;-73
2021/07/31 07:58:31;;;;;;;7.40;2.87;;;;;;;16.06;73.86;99882.47;5047919;28;20045;-74
2021/07/31 08:00:56;;;;;;;10.00;3.23;;;;;;;16.14;73.38;99882.22;5047773;28;20151;-74
2021/07/31 08:03:22;;;;;;;5.03;2.30;;;;;;;16.23;72.89;99872.81;5048510;28;20029;-74
2021/07/31 08:05:48;;;;;;;8.67;3.57;;;;;;;16.41;71.53;99878.25;5048432;28;20112;-74
2021/07/31 08:08:13;;;;;;;4.63;2.90;;;;;;;16.59;71.05;99884.69;5030545;28;20044;-74
2021/07/31 08:10:38;;;;;;;10.97;3.70;;;;;;;16.95;70.16;99877.69;5031026;28;20120;-73
2021/07/31 08:13:04;;;;;;;7.17;3.00;;;;;;;17.03;69.81;99872.00;5047378;28;20603;-74
2021/07/31 08:15:30;;;;;;;6.83;2.90;;;;;;;17.96;67.44;99865.34;5046687;28;20106;-73
2021/07/31 08:17:55;;;;;;;5.72;2.28;;;;;;;18.74;64.34;99866.03;5030607;28;20025;-74
2021/07/31 08:20:21;;;;;;;7.20;2.27;;;;;;;18.71;64.08;99847.59;5047500;28;20044;-75
2021/07/31 08:22:47;;;;;;;6.57;2.45;;;;;;;19.11;62.73;99868.47;5048141;28;20537;-74
2021/07/31 08:25:12;;;;;;;7.22;2.75;;;;;;;18.67;62.08;99865.34;5047285;28;20021;-74
2021/07/31 08:27:38;;;;;;;4.97;2.60;;;;;;;18.83;62.48;99845.72;5046683;28;20068;-74
2021/07/31 08:30:05;;;;;;;7.47;3.40;;;;;;;18.12;63.38;99861.94;5030909;28;20385;-73
2021/07/31 08:32:30;;;;;;;6.43;3.05;;;;;;;17.64;66.00;99860.19;5047282;28;20564;-75
2021/07/31 08:34:56;;;;;;;5.70;2.90;;;;;;;17.38;65.82;99853.28;5048419;28;20029;-74
2021/07/31 08:37:21;;;;;;;6.50;2.53;;;;;;;17.48;66.04;99858.94;5047986;28;20437;-74
2021/07/31 08:39:47;;;;;;;6.60;2.73;;;;;;;17.53;66.78;99855.56;5030640;28;20094;-73
2021/07/31 08:42:13;;;;;;;6.60;2.97;;;;;;;17.11;67.40;99863.59;5048235;28;20047;-74
2021/07/31 08:44:39;;;;;;;6.45;3.65;;;;;;;16.92;68.43;99861.97;5030448;28;20381;-73
2021/07/31 08:47:06;;;;;;;6.28;2.10;;;;;;;17.07;68.55;99865.13;5047033;28;20033;-74
2021/07/31 08:49:34;;;;;;;4.97;2.92;;;;;;;17.04;69.07;99876.34;5030659;28;20450;-74
2021/07/31 08:52:01;;;;;;;4.78;2.63;;;;;;;16.77;70.23;99865.03;5048144;28;20075;-74
2021/07/31 08:54:26;;;;;;;10.05;3.17;;;;;;;16.82;69.86;99857.13;5047909;28;20361;-73
2021/07/31 08:56:55;;;;;;;5.87;3.10;;;;;;;17.10;68.76;99867.34;5047936;28;20518;-74
2021/07/31 08:59:27;;;;;;;4.57;2.42;;;;;;;17.13;68.11;99861.50;5046173;28;20036;-74
2021/07/31 09:01:54;;;;;;;5.22;2.75;;;;;;;16.88;68.33;99851.66;5045541;28;20028;-73
2021/07/31 09:04:19;;;;;;;;;;;;;;;16.86;68.58;99851.06;5045671;28;20049;-73
2021/07/31 09:06:45;;;;;;;;;;;;;;;16.82;69.37;99857.94;5029470;28;19913;-73
2021/07/31 09:09:11;;;;;;;8.40;2.90;;;;;;;16.78;69.44;99856.69;5045637;28;20016;-73
2021/07/31 09:11:57;;;;;;;5.55;2.90;;;;;;;16.74;68.92;99851.97;5046900;28;20051;-74
2021/07/31 09:14:24;;;;;;;5.85;2.50;;;;;;;16.67;69.06;99855.59;5047740;28;20466;-74
2021/07/31 09:16:49;;;;;;;5.78;2.53;;;;;;;16.73;69.48;99851.16;5047753;28;20512;-74
2021/07/31 09:19:16;;;;;;;7.60;2.87;;;;;;;16.73;69.26;99853.03;5046868;28;20029;-74
2021/07/31 09:21:42;;;;;;;4.25;2.50;;;;;;;16.62;69.79;99862.69;5046743;28;20075;-73
2021/07/31 09:24:15;;;;;;;10.00;2.92;;;;;;;16.76;69.85;99856.09;5047603;28;20458;-74
2021/07/31 09:26:50;;;;;;;7.45;2.33;;;;;;;16.77;69.78;99849.69;5048968;28;20044;-74
2021/07/31 09:29:32;;;;;;;5.40;2.88;;;;;;;16.67;69.92;99850.19;5051085;28;20385;-73
2021/07/31 09:32:06;;;;;;;8.90;3.30;;;;;;;16.75;70.25;99856.34;5033601;28;20033;-73
2021/07/31 09:34:37;;;;;;;5.07;2.63;;;;;;;16.72;70.52;99846.84;5050292;28;20059;-74
2021/07/31 09:37:07;;;;;;;7.95;2.63;;;;;;;17.00;69.92;99853.59;5049897;28;20036;-74
2021/07/31 09:39:50;;;;;;;5.57;2.35;;;;;;;17.29;69.04;99868.16;5050276;28;20029;-74
2021/07/31 09:42:35;;;;;;;6.65;2.25;;;;;;;17.43;68.24;99853.41;5050043;28;20037;-74
2021/07/31 09:45:05;;;;;;;6.30;2.83;;;;;;;17.29;67.40;99847.38;5049601;28;20553;-74
2021/07/31 09:47:31;;;;;;;3.08;2.13;;;;;;;17.64;66.75;99845.88;5050390;28;20025;-74
2021/07/31 09:49:59;;;;;;;4.35;2.50;;;;;;;18.35;66.39;99847.63;5033294;28;20039;-74
2021/07/31 09:52:27;;;;;;;10.63;2.35;;;;;;;18.22;65.46;99844.34;5032950;28;20032;-74
2021/07/31 09:54:54;;;;;;;6.85;2.03;;;;;;;17.74;66.81;99848.81;5049572;28;20091;-74
2021/07/31 09:57:23;;;;;;;7.50;2.30;;;;;;;17.50;67.14;99815.56;5049981;28;20033;-73
2021/07/31 09:59:52;;;;;;;5.45;2.30;;;;;;;17.52;68.03;99862.84;5050013;28;20048;-74
2021/07/31 10:02:19;;;;;;;4.50;2.28;;;;;;;17.72;67.10;99840.13;5048654;28;20458;-74
2021/07/31 10:04:46;;;;;;;6.18;2.33;;;;;;;17.87;66.55;99835.16;5049374;28;20057;-74
2021/07/31 10:07:13;;;;;;;6.90;2.30;;;;;;;17.91;66.57;99846.28;5032734;28;20044;-73
2021/07/31 10:09:41;;;;;;;7.10;3.00;;;;;;;18.11;65.88;99837.88;5050677;28;20048;-75
2021/07/31 10:12:10;;;;;;;11.45;3.03;;;;;;;18.11;65.94;99840.56;5049629;28;20017;-74
2021/07/31 10:14:37;;;;;;;6.93;2.67;;;;;;;18.47;64.32;99836.81;5050513;28;20115;-74
2021/07/31 10:17:03;;;;;;;6.30;3.15;;;;;;;18.67;64.24;99812.09;5048355;28;20034;-76
2021/07/31 10:19:37;;;;;;;4.25;2.78;;;;;;;18.16;65.29;99820.97;5049426;28;20097;-76
2021/07/31 10:22:03;;;;;;;5.00;2.60;;;;;;;18.59;64.91;99827.84;5049470;28;20095;-75
2021/07/31 10:24:54;;;;;;;4.53;2.60;;;;;;;18.47;64.84;99817.91;5048964;28;20409;-75
2021/07/31 10:27:24;;;;;;;5.60;2.63;;;;;;;18.68;63.72;99824.56;5049085;28;20319;-76
2021/07/31 10:29:54;;;;;;;5.75;2.38;;;;;;;19.25;63.17;99809.47;5049289;28;20036;-76
2021/07/31 10:32:22;;;;;;;8.02;2.17;;;;;;;19.52;62.65;99820.50;5049328;28;20029;-76
2021/07/31 10:34:53;;;;;;;7.35;2.63;;;;;;;19.33;61.97;99820.72;5031777;28;20024;-76
2021/07/31 10:37:27;;;;;;;6.60;2.67;;;;;;;19.43;62.03;99814.66;5047877;28;20071;-76
2021/07/31 10:40:03;;;;;;;4.72;2.15;;;;;;;18.68;63.16;99799.38;5047920;28;20032;-76
2021/07/31 10:42:47;;;;;;;5.80;2.10;;;;;;;18.36;63.83;99805.22;5049738;28;20068;-76
2021/07/31 10:45:16;;;;;;;5.03;2.35;;;;;;;18.17;64.92;99806.38;5049206;28;20041;-76
2021/07/31 10:47:45;;;;;;;5.70;2.30;;;;;;;18.34;65.04;99810.84;5031986;28;20075;-75
2021/07/31 10:50:23;;;;;;;6.88;2.92;;;;;;;17.99;65.57;99791.94;5048929;28;20041;-75
2021/07/31 10:52:50;;;;;;;5.70;3.15;;;;;;;18.01;66.03;99784.44;5048916;28;20103;-75
2021/07/31 10:55:18;;;;;;;3.92;1.85;;;;;;;17.88;65.83;99785.47;5048371;28;20061;-74
2021/07/31 10:57:52;;;;;;;8.15;2.70;;;;;;;17.79;66.47;99780.63;5048682;28;20036;-75
2021/07/31 11:00:24;;;;;;;7.00;2.70;;;;;;;17.78;67.28;99784.41;5047350;28;20124;-75
2021/07/31 11:02:50;;;;;;;3.95;2.35;;;;;;;17.70;66.98;99783.69;5047146;28;20037;-74
2021/07/31 11:05:16;;;;;;;8.40;2.33;;;;;;;17.79;66.53;99780.63;5047957;28;20043;-75
2021/07/31 11:07:57;;;;;;;7.50;2.33;;;;;;;17.85;65.95;99801.34;5047043;28;20036;-75
2021/07/31 11:10:32;;;;;;;4.15;2.03;;;;;;;17.90;65.99;99782.56;5047300;28;20048;-74
2021/07/31 11:12:58;;;;;;;6.67;2.37;;;;;;;17.90;65.68;99783.38;5031394;28;20367;-75
2021/07/31 11:15:24;;;;;;;;;;;;;;;17.77;65.68;99783.59;5031994;28;20291;-74
2021/07/31 11:17:54;;;;;;;;;;;;;;;17.82;65.90;99769.41;5048822;28;19916;-75
2021/07/31 11:20:31;;;;;;;6.63;2.47;;;;;;;18.12;64.89;99769.28;5049312;28;19920;-75
2021/07/31 11:23:00;;;;;;;8.38;2.25;;;;;;;18.52;64.45;99760.44;5048374;28;20079;-75
2021/07/31 11:25:26;;;;;;;9.57;2.92;;;;;;;17.97;65.21;99767.06;5048261;28;20039;-75
2021/07/31 11:28:09;;;;;;;6.40;3.20;;;;;;;17.53;66.26;99742.22;5048770;28;20024;-76
2021/07/31 11:30:39;;;;;;;10.35;4.05;;;;;;;17.57;66.00;99754.19;5049212;28;20037;-75
2021/07/31 11:33:17;;;;;;;6.53;2.30;;;;;;;17.83;65.92;99752.16;5048908;28;20036;-76
2021/07/31 11:35:43;;;;;;;5.07;2.80;;;;;;;17.90;66.03;99758.25;5031246;28;20071;-75